createdAt,value
2019-04-20T00:00:44.098Z,1018.46
2019-04-20T00:05:41.285Z,1018.45
2019-04-20T00:10:47.557Z,1018.47
2019-04-20T00:15:38.967Z,1018.42
2019-04-20T00:20:40.087Z,1018.47
2019-04-20T00:25:50.304Z,1018.38
2019-04-20T00:35:40.089Z,1018.45
2019-04-20T00:40:39.268Z,1018.38
2019-04-20T00:45:46.774Z,1018.31
2019-04-20T00:55:37.982Z,1018.30
2019-04-20T01:01:00.159Z,1018.33
2019-04-20T01:05:59.651Z,1018.31
2019-04-20T01:10:42.775Z,1018.28
2019-04-20T01:15:43.807Z,1018.32
2019-04-20T01:20:36.511Z,1018.27
2019-04-20T01:30:40.858Z,1018.38
2019-04-20T01:35:51.590Z,1018.40
2019-04-20T01:40:36.125Z,1018.36
2019-04-20T01:45:39.231Z,1018.38
2019-04-20T01:50:38.053Z,1018.38
2019-04-20T01:55:53.020Z,1018.38
2019-04-20T02:00:40.164Z,1018.34
2019-04-20T02:05:38.596Z,1018.43
2019-04-20T02:10:41.665Z,1018.41
2019-04-20T02:15:40.349Z,1018.42
2019-04-20T02:20:54.453Z,1018.46
2019-04-20T02:25:35.650Z,1018.42
2019-04-20T02:30:57.683Z,1018.51
2019-04-20T02:36:11.094Z,1018.45
2019-04-20T02:45:57.782Z,1018.56
2019-04-20T03:00:44.709Z,1018.59
2019-04-20T03:05:39.491Z,1018.57
2019-04-20T03:15:48.645Z,1018.56
2019-04-20T03:20:46.350Z,1018.68
2019-04-20T03:31:21.007Z,1018.59
2019-04-20T03:35:57.464Z,1018.53
2019-04-20T03:40:39.913Z,1018.61
2019-04-20T03:45:37.435Z,1018.57
2019-04-20T03:50:41.187Z,1018.59
2019-04-20T04:05:44.330Z,1018.62
2019-04-20T04:10:47.618Z,1018.62
2019-04-20T04:15:29.617Z,1018.61
2019-04-20T04:20:37.670Z,1018.63
2019-04-20T04:25:40.946Z,1018.77
2019-04-20T04:30:37.874Z,1018.69
2019-04-20T04:40:52.491Z,1018.82
2019-04-20T04:45:30.471Z,1018.88
2019-04-20T04:50:31.135Z,1018.97
2019-04-20T04:55:35.183Z,1019.00
2019-04-20T05:00:29.838Z,1019.02
2019-04-20T05:05:47.249Z,1018.97
2019-04-20T05:10:28.739Z,1018.96
2019-04-20T05:20:53.074Z,1019.13
2019-04-20T05:30:28.776Z,1019.06
2019-04-20T05:35:52.556Z,1019.06
2019-04-20T05:40:50.498Z,1019.04
2019-04-20T05:45:38.840Z,1019.08
2019-04-20T05:50:49.374Z,1019.07
2019-04-20T05:55:53.284Z,1019.04
2019-04-20T06:00:55.080Z,1018.97
2019-04-20T06:05:58.055Z,1018.95
2019-04-20T06:10:51.725Z,1018.96
2019-04-20T06:15:46.722Z,1018.99
2019-04-20T06:20:43.296Z,1019.04
2019-04-20T06:30:41.683Z,1019.07
2019-04-20T06:35:54.644Z,1019.14
2019-04-20T06:40:59.483Z,1019.03
2019-04-20T06:46:00.990Z,1019.11
2019-04-20T06:50:44.552Z,1019.15
2019-04-20T06:55:51.191Z,1019.06
2019-04-20T07:00:42.324Z,1019.13
2019-04-20T07:05:49.039Z,1019.17
2019-04-20T07:10:51.749Z,1019.19
2019-04-20T07:15:45.157Z,1019.14
2019-04-20T07:25:42.311Z,1019.15
2019-04-20T07:30:46.386Z,1019.21
2019-04-20T07:40:42.890Z,1019.13
2019-04-20T07:45:36.541Z,1019.05
2019-04-20T07:50:37.505Z,1019.08
2019-04-20T08:15:49.508Z,1018.97
2019-04-20T08:20:47.663Z,1019.00
2019-04-20T08:25:36.157Z,1019.00
2019-04-20T08:30:34.270Z,1018.94
2019-04-20T08:35:49.377Z,1019.01
2019-04-20T08:40:43.937Z,1018.94
2019-04-20T08:50:44.095Z,1018.93
2019-04-20T08:55:37.484Z,1018.82
2019-04-20T09:00:29.430Z,1018.88
2019-04-20T09:05:34.856Z,1018.86
2019-04-20T09:10:34.495Z,1018.81
2019-04-20T09:20:32.785Z,1018.78
2019-04-20T09:25:48.442Z,1018.76
2019-04-20T09:35:38.695Z,1018.74
2019-04-20T09:40:35.500Z,1018.74
2019-04-20T09:50:31.929Z,1018.72
2019-04-20T09:55:28.853Z,1018.67
2019-04-20T10:00:33.928Z,1018.67
2019-04-20T10:05:15.672Z,1018.71
2019-04-20T10:15:19.305Z,1018.55
2019-04-20T10:20:20.848Z,1018.50
2019-04-20T10:35:14.989Z,1018.45
2019-04-20T10:40:13.454Z,1018.29
2019-04-20T10:45:12.851Z,1018.47
2019-04-20T10:50:11.379Z,1018.41
2019-04-20T10:55:10.503Z,1018.43
2019-04-20T11:00:09.949Z,1018.33
2019-04-20T11:10:17.890Z,1018.34
2019-04-20T11:15:08.385Z,1018.23
2019-04-20T11:20:07.815Z,1018.25
2019-04-20T11:30:08.070Z,1018.04
2019-04-20T11:35:15.988Z,1017.99
2019-04-20T11:50:09.457Z,1017.79
2019-04-20T11:55:08.486Z,1017.77
2019-04-20T12:00:06.881Z,1017.66
2019-04-20T12:10:12.936Z,1017.56
2019-04-20T12:15:08.553Z,1017.51
2019-04-20T12:20:06.301Z,1017.44
2019-04-20T12:30:07.860Z,1017.39
2019-04-20T12:35:06.482Z,1017.42
2019-04-20T12:45:05.914Z,1017.31
2019-04-20T12:50:05.440Z,1017.26
2019-04-20T12:55:04.623Z,1017.30
2019-04-20T13:00:03.926Z,1017.18
2019-04-20T13:05:03.690Z,1017.14
2019-04-20T13:10:03.960Z,1017.14
2019-04-20T13:15:02.337Z,1017.08
2019-04-20T13:20:01.988Z,1017.04
2019-04-20T13:25:03.169Z,1016.97
2019-04-20T13:30:03.208Z,1016.79
2019-04-20T13:35:02.507Z,1016.87
2019-04-20T13:45:01.166Z,1016.68
2019-04-20T13:55:02.331Z,1016.63
2019-04-20T14:00:02.213Z,1016.52
2019-04-20T14:05:02.610Z,1016.57
2019-04-20T14:10:00.385Z,1016.44
2019-04-20T14:15:02.743Z,1016.38
2019-04-20T14:20:06.909Z,1016.31
2019-04-20T14:25:01.080Z,1016.33
2019-04-20T14:30:01.453Z,1016.30
2019-04-20T14:35:01.057Z,1016.31
2019-04-20T14:40:01.093Z,1016.18
2019-04-20T14:45:00.114Z,1016.17
2019-04-20T14:54:59.483Z,1016.12
2019-04-20T14:59:59.225Z,1016.09
2019-04-20T15:04:59.034Z,1016.03
2019-04-20T15:09:57.268Z,1015.92
2019-04-20T15:14:58.738Z,1015.86
2019-04-20T15:24:56.143Z,1015.90
2019-04-20T15:29:56.127Z,1015.81
2019-04-20T15:34:55.228Z,1015.83
2019-04-20T15:39:54.935Z,1015.89
2019-04-20T15:44:55.471Z,1015.82
2019-04-20T15:54:53.710Z,1015.68
2019-04-20T15:59:53.304Z,1015.69
2019-04-20T16:04:54.417Z,1015.66
2019-04-20T16:09:53.252Z,1015.75
2019-04-20T16:14:53.572Z,1015.69
2019-04-20T16:20:00.923Z,1015.67
2019-04-20T16:24:53.780Z,1015.66
2019-04-20T16:29:53.463Z,1015.61
2019-04-20T16:34:53.000Z,1015.61
2019-04-20T16:39:52.514Z,1015.60
2019-04-20T16:49:52.843Z,1015.50
2019-04-20T16:59:56.154Z,1015.42
2019-04-20T17:04:54.991Z,1015.34
2019-04-20T17:09:53.923Z,1015.33
2019-04-20T17:14:53.581Z,1015.47
2019-04-20T17:19:53.471Z,1015.39
2019-04-20T17:24:51.623Z,1015.49
2019-04-20T17:29:52.809Z,1015.47
2019-04-20T17:35:02.040Z,1015.38
2019-04-20T17:40:12.918Z,1015.40
2019-04-20T17:50:06.884Z,1015.54
2019-04-20T17:54:49.505Z,1015.47
2019-04-20T17:59:54.155Z,1015.51
2019-04-20T18:05:12.731Z,1015.52
2019-04-20T18:10:09.818Z,1015.61
2019-04-20T18:15:10.780Z,1015.69
2019-04-20T18:19:49.014Z,1015.67
2019-04-20T18:25:08.777Z,1015.62
2019-04-20T18:30:06.893Z,1015.74
2019-04-20T18:34:53.216Z,1015.64
2019-04-20T18:39:57.472Z,1015.70
2019-04-20T18:45:08.954Z,1015.76
2019-04-20T18:49:57.265Z,1015.72
2019-04-20T18:54:49.709Z,1015.77
2019-04-20T19:04:48.064Z,1015.75
2019-04-20T19:09:46.718Z,1015.80
2019-04-20T19:14:49.517Z,1015.82
2019-04-20T19:19:50.964Z,1015.82
2019-04-20T19:29:56.464Z,1015.88
2019-04-20T19:35:00.166Z,1015.87
2019-04-20T19:45:05.501Z,1016.02
2019-04-20T19:50:10.979Z,1016.02
2019-04-20T19:55:02.675Z,1015.96
2019-04-20T19:59:50.194Z,1015.97
2019-04-20T20:04:51.798Z,1015.98
2019-04-20T20:09:53.005Z,1015.97
2019-04-20T20:14:47.760Z,1015.96
2019-04-20T20:24:45.194Z,1016.02
2019-04-20T20:29:55.857Z,1016.06
2019-04-20T20:34:54.401Z,1015.99
2019-04-20T20:39:53.777Z,1016.03
2019-04-20T20:44:52.376Z,1016.04
2019-04-20T20:50:08.302Z,1016.02
2019-04-20T20:54:56.309Z,1016.09
2019-04-20T20:59:53.379Z,1016.10
2019-04-20T21:04:41.752Z,1016.07
2019-04-20T21:09:41.811Z,1016.14
2019-04-20T21:14:43.517Z,1016.02
2019-04-20T21:19:58.363Z,1016.10
2019-04-20T21:24:39.881Z,1016.01
2019-04-20T21:34:41.473Z,1016.03
2019-04-20T21:39:44.609Z,1016.13
2019-04-20T21:44:40.767Z,1016.00
2019-04-20T21:49:49.666Z,1016.08
2019-04-20T21:54:36.066Z,1015.91
2019-04-20T21:59:42.693Z,1015.99
2019-04-20T22:04:37.524Z,1015.95
2019-04-20T22:09:43.423Z,1015.93
2019-04-20T22:14:37.667Z,1015.94
2019-04-20T22:19:45.790Z,1015.95
2019-04-20T22:24:50.483Z,1016.00
2019-04-20T22:29:38.517Z,1015.99
2019-04-20T22:34:38.015Z,1015.89
2019-04-20T22:39:41.347Z,1015.77
2019-04-20T22:44:37.063Z,1015.80
2019-04-20T22:49:48.516Z,1015.79
2019-04-20T22:54:51.857Z,1015.73
2019-04-20T22:59:43.282Z,1015.70
2019-04-20T23:04:37.118Z,1015.54
2019-04-20T23:09:39.474Z,1015.57
2019-04-20T23:14:36.380Z,1015.49
2019-04-20T23:19:43.870Z,1015.56
2019-04-20T23:29:37.658Z,1015.36
2019-04-20T23:34:34.263Z,1015.36
2019-04-20T23:44:31.820Z,1015.11
2019-04-20T23:49:50.792Z,1015.02
2019-04-20T23:54:33.658Z,1015.05
2019-04-20T23:59:37.387Z,1014.96
